メインページ
METAR-TAF:

METAR-TAF

空港 :

ナナイモ空港

ナナイモ, ブリティッシュコロンビア州, カナダ

緯度: 49-03N, 経度: 123-52W, 海抜: 28m

現時点の気象観測

当レポートは30分前の03:00(UTC)に作成
の風 3kt
気温 26°C
湿度 39%
気圧 1019 hPa
視程: 48.3km
晴天

METAR: CYCD 230300Z 01003KT 30SM SKC 26/11 A3010 RMK SLP194 DENSITY ALT 1300FT

時間: 20:30 (03:30 UTC)

予報

当レポートは3時間51分前の23:39(UTC)に作成
予報は23日の 00時(UTC)から 23日の 04時(UTC)まで有効
の風 8kt
視程: 10km
高度6000ftの雲はほとんどない

TAF: CYCD 222339Z 2300/2304 36008KT P6SM FEW060 RMK NXT FCST WILL BE ISSUED AT 231445Z

4,000以上の空港の気象観測と天気予報(METAR報とTAF報)

利用可能な観測所は地図上に黄色い丸と赤い丸で示す。

丸の上にカーソルを重ねると観測所名を参照できる。

次にクリックすると気象観測と天気予報を参照できる。

マップの切り替え:黒色「×」印の緑ボタンをクリックして拡大、「-」印の緑ボタンをクリックして縮小、緑色の三角印をクリックして隣りの地図に切り替え


METAR-TAF: